sensor_id;sensor_type;location;lat;lon;timestamp;P1;durP1;ratioP1;P2;durP2;ratioP2
17283;SDS011;8760;52.248;20.952;2023-07-28T00:01:57;3.70;;;2.95;;
17283;SDS011;8760;52.248;20.952;2023-07-28T00:04:24;9.32;;;3.42;;
17283;SDS011;8760;52.248;20.952;2023-07-28T00:06:51;5.90;;;3.70;;
17283;SDS011;8760;52.248;20.952;2023-07-28T00:09:17;4.47;;;3.58;;
17283;SDS011;8760;52.248;20.952;2023-07-28T00:11:44;3.92;;;3.38;;
17283;SDS011;8760;52.248;20.952;2023-07-28T00:14:11;3.95;;;3.30;;
17283;SDS011;8760;52.248;20.952;2023-07-28T00:16:40;3.75;;;3.35;;
17283;SDS011;8760;52.248;20.952;2023-07-28T00:19:07;5.03;;;3.10;;
17283;SDS011;8760;52.248;20.952;2023-07-28T00:21:34;4.85;;;3.13;;
17283;SDS011;8760;52.248;20.952;2023-07-28T00:24:01;6.93;;;3.97;;
17283;SDS011;8760;52.248;20.952;2023-07-28T00:26:28;5.65;;;3.28;;
17283;SDS011;8760;52.248;20.952;2023-07-28T00:28:54;4.28;;;2.92;;
17283;SDS011;8760;52.248;20.952;2023-07-28T00:31:23;4.72;;;3.08;;
17283;SDS011;8760;52.248;20.952;2023-07-28T00:33:51;4.13;;;3.13;;
17283;SDS011;8760;52.248;20.952;2023-07-28T00:36:18;4.80;;;3.22;;
17283;SDS011;8760;52.248;20.952;2023-07-28T00:38:44;5.45;;;3.13;;
17283;SDS011;8760;52.248;20.952;2023-07-28T00:41:11;5.10;;;3.35;;
17283;SDS011;8760;52.248;20.952;2023-07-28T00:43:38;4.30;;;3.58;;
17283;SDS011;8760;52.248;20.952;2023-07-28T00:46:05;4.25;;;2.97;;
17283;SDS011;8760;52.248;20.952;2023-07-28T00:48:32;5.45;;;2.67;;
17283;SDS011;8760;52.248;20.952;2023-07-28T00:51:01;4.35;;;3.38;;
17283;SDS011;8760;52.248;20.952;2023-07-28T00:53:28;3.42;;;2.80;;
17283;SDS011;8760;52.248;20.952;2023-07-28T00:55:55;5.18;;;3.22;;
17283;SDS011;8760;52.248;20.952;2023-07-28T00:58:22;3.22;;;2.70;;
17283;SDS011;8760;52.248;20.952;2023-07-28T01:00:49;6.10;;;2.72;;
17283;SDS011;8760;52.248;20.952;2023-07-28T01:03:17;4.07;;;3.00;;
17283;SDS011;8760;52.248;20.952;2023-07-28T01:05:48;4.78;;;3.05;;
17283;SDS011;8760;52.248;20.952;2023-07-28T01:08:23;5.50;;;3.20;;
17283;SDS011;8760;52.248;20.952;2023-07-28T01:10:55;5.15;;;3.08;;
17283;SDS011;8760;52.248;20.952;2023-07-28T01:13:21;3.22;;;2.88;;
17283;SDS011;8760;52.248;20.952;2023-07-28T01:15:48;3.72;;;2.92;;
17283;SDS011;8760;52.248;20.952;2023-07-28T01:18:15;3.65;;;2.85;;
17283;SDS011;8760;52.248;20.952;2023-07-28T01:20:42;5.28;;;2.88;;
17283;SDS011;8760;52.248;20.952;2023-07-28T01:23:14;3.63;;;2.97;;
17283;SDS011;8760;52.248;20.952;2023-07-28T01:25:57;4.13;;;3.05;;
17283;SDS011;8760;52.248;20.952;2023-07-28T01:28:31;3.35;;;3.00;;
17283;SDS011;8760;52.248;20.952;2023-07-28T01:31:00;3.42;;;2.80;;
17283;SDS011;8760;52.248;20.952;2023-07-28T01:33:28;5.63;;;3.08;;
17283;SDS011;8760;52.248;20.952;2023-07-28T01:35:55;4.95;;;3.00;;
17283;SDS011;8760;52.248;20.952;2023-07-28T01:38:21;6.55;;;3.10;;
17283;SDS011;8760;52.248;20.952;2023-07-28T01:40:48;4.07;;;3.30;;
17283;SDS011;8760;52.248;20.952;2023-07-28T01:43:15;4.63;;;3.30;;
17283;SDS011;8760;52.248;20.952;2023-07-28T01:45:43;3.47;;;3.17;;
17283;SDS011;8760;52.248;20.952;2023-07-28T01:48:10;4.13;;;3.20;;
17283;SDS011;8760;52.248;20.952;2023-07-28T01:50:37;5.07;;;3.20;;
17283;SDS011;8760;52.248;20.952;2023-07-28T01:53:05;6.68;;;3.22;;
17283;SDS011;8760;52.248;20.952;2023-07-28T01:55:32;4.97;;;2.70;;
17283;SDS011;8760;52.248;20.952;2023-07-28T01:58:00;4.18;;;3.05;;
17283;SDS011;8760;52.248;20.952;2023-07-28T02:00:27;5.43;;;3.20;;
17283;SDS011;8760;52.248;20.952;2023-07-28T02:02:56;5.47;;;3.08;;
17283;SDS011;8760;52.248;20.952;2023-07-28T02:05:24;3.70;;;3.30;;
17283;SDS011;8760;52.248;20.952;2023-07-28T02:07:50;5.95;;;3.58;;
17283;SDS011;8760;52.248;20.952;2023-07-28T02:10:17;3.90;;;3.20;;
17283;SDS011;8760;52.248;20.952;2023-07-28T02:12:44;4.72;;;3.20;;
17283;SDS011;8760;52.248;20.952;2023-07-28T02:15:11;3.45;;;3.13;;
17283;SDS011;8760;52.248;20.952;2023-07-28T02:17:39;3.47;;;3.05;;
17283;SDS011;8760;52.248;20.952;2023-07-28T02:20:07;3.72;;;3.25;;
17283;SDS011;8760;52.248;20.952;2023-07-28T02:22:37;5.78;;;3.05;;
17283;SDS011;8760;52.248;20.952;2023-07-28T02:25:05;3.97;;;3.22;;
17283;SDS011;8760;52.248;20.952;2023-07-28T02:27:32;4.65;;;3.13;;
17283;SDS011;8760;52.248;20.952;2023-07-28T02:29:59;5.35;;;3.22;;
17283;SDS011;8760;52.248;20.952;2023-07-28T02:32:26;4.75;;;3.47;;
17283;SDS011;8760;52.248;20.952;2023-07-28T02:34:53;5.80;;;3.05;;
17283;SDS011;8760;52.248;20.952;2023-07-28T02:37:22;3.88;;;3.45;;
17283;SDS011;8760;52.248;20.952;2023-07-28T02:39:49;4.40;;;3.38;;
17283;SDS011;8760;52.248;20.952;2023-07-28T02:42:16;3.72;;;3.20;;
17283;SDS011;8760;52.248;20.952;2023-07-28T02:44:42;4.22;;;3.38;;
17283;SDS011;8760;52.248;20.952;2023-07-28T02:47:09;4.63;;;3.55;;
17283;SDS011;8760;52.248;20.952;2023-07-28T02:49:36;4.03;;;3.50;;
17283;SDS011;8760;52.248;20.952;2023-07-28T02:52:04;4.50;;;3.88;;
17283;SDS011;8760;52.248;20.952;2023-07-28T02:54:32;4.82;;;3.15;;
17283;SDS011;8760;52.248;20.952;2023-07-28T02:56:59;6.20;;;3.72;;
17283;SDS011;8760;52.248;20.952;2023-07-28T02:59:26;4.90;;;3.72;;
17283;SDS011;8760;52.248;20.952;2023-07-28T03:01:53;6.15;;;3.67;;
17283;SDS011;8760;52.248;20.952;2023-07-28T03:04:22;4.57;;;3.97;;
17283;SDS011;8760;52.248;20.952;2023-07-28T03:06:49;9.32;;;4.30;;
17283;SDS011;8760;52.248;20.952;2023-07-28T03:09:16;5.13;;;3.83;;
17283;SDS011;8760;52.248;20.952;2023-07-28T03:11:44;4.30;;;3.90;;
17283;SDS011;8760;52.248;20.952;2023-07-28T03:14:11;7.85;;;4.10;;
17283;SDS011;8760;52.248;20.952;2023-07-28T03:16:38;6.63;;;3.92;;
17283;SDS011;8760;52.248;20.952;2023-07-28T03:19:06;5.43;;;3.92;;
17283;SDS011;8760;52.248;20.952;2023-07-28T03:21:33;6.82;;;3.90;;
17283;SDS011;8760;52.248;20.952;2023-07-28T03:24:00;5.75;;;4.07;;
17283;SDS011;8760;52.248;20.952;2023-07-28T03:26:26;5.78;;;4.03;;
17283;SDS011;8760;52.248;20.952;2023-07-28T03:28:55;8.23;;;4.10;;
17283;SDS011;8760;52.248;20.952;2023-07-28T03:31:21;8.85;;;3.92;;
17283;SDS011;8760;52.248;20.952;2023-07-28T03:33:48;8.02;;;4.05;;
17283;SDS011;8760;52.248;20.952;2023-07-28T03:36:15;6.28;;;4.10;;
17283;SDS011;8760;52.248;20.952;2023-07-28T03:38:44;6.05;;;4.07;;
17283;SDS011;8760;52.248;20.952;2023-07-28T03:41:11;6.47;;;4.50;;
17283;SDS011;8760;52.248;20.952;2023-07-28T03:43:38;5.13;;;3.65;;
17283;SDS011;8760;52.248;20.952;2023-07-28T03:46:07;5.97;;;3.60;;
17283;SDS011;8760;52.248;20.952;2023-07-28T03:48:34;7.07;;;4.10;;
17283;SDS011;8760;52.248;20.952;2023-07-28T03:51:01;7.68;;;3.97;;
17283;SDS011;8760;52.248;20.952;2023-07-28T03:53:27;7.35;;;3.88;;
17283;SDS011;8760;52.248;20.952;2023-07-28T03:55:54;5.28;;;3.90;;
17283;SDS011;8760;52.248;20.952;2023-07-28T03:58:23;7.47;;;3.90;;
17283;SDS011;8760;52.248;20.952;2023-07-28T04:00:50;4.43;;;3.80;;
17283;SDS011;8760;52.248;20.952;2023-07-28T04:03:19;4.22;;;3.60;;
17283;SDS011;8760;52.248;20.952;2023-07-28T04:05:46;6.15;;;4.20;;
17283;SDS011;8760;52.248;20.952;2023-07-28T04:08:12;6.07;;;4.07;;
17283;SDS011;8760;52.248;20.952;2023-07-28T04:10:39;6.75;;;3.80;;
17283;SDS011;8760;52.248;20.952;2023-07-28T04:13:06;5.55;;;4.28;;
17283;SDS011;8760;52.248;20.952;2023-07-28T04:15:34;6.43;;;4.13;;
17283;SDS011;8760;52.248;20.952;2023-07-28T04:18:01;5.78;;;4.00;;
17283;SDS011;8760;52.248;20.952;2023-07-28T04:20:29;5.13;;;3.60;;
17283;SDS011;8760;52.248;20.952;2023-07-28T04:22:56;5.07;;;4.18;;
17283;SDS011;8760;52.248;20.952;2023-07-28T04:25:22;5.15;;;4.10;;
17283;SDS011;8760;52.248;20.952;2023-07-28T04:27:49;5.25;;;4.03;;
17283;SDS011;8760;52.248;20.952;2023-07-28T04:30:16;7.50;;;3.80;;
17283;SDS011;8760;52.248;20.952;2023-07-28T04:32:43;5.10;;;3.70;;
17283;SDS011;8760;52.248;20.952;2023-07-28T04:35:10;5.88;;;3.90;;
17283;SDS011;8760;52.248;20.952;2023-07-28T04:37:38;5.57;;;3.90;;
17283;SDS011;8760;52.248;20.952;2023-07-28T04:40:05;4.70;;;3.70;;
17283;SDS011;8760;52.248;20.952;2023-07-28T04:42:34;4.93;;;3.35;;
17283;SDS011;8760;52.248;20.952;2023-07-28T04:45:01;5.97;;;4.25;;
17283;SDS011;8760;52.248;20.952;2023-07-28T04:47:28;4.38;;;3.50;;
17283;SDS011;8760;52.248;20.952;2023-07-28T04:49:55;4.13;;;3.72;;
17283;SDS011;8760;52.248;20.952;2023-07-28T04:52:22;7.95;;;4.07;;
17283;SDS011;8760;52.248;20.952;2023-07-28T04:54:50;4.32;;;3.88;;
17283;SDS011;8760;52.248;20.952;2023-07-28T04:57:17;5.95;;;3.70;;
17283;SDS011;8760;52.248;20.952;2023-07-28T04:59:45;4.47;;;3.70;;
17283;SDS011;8760;52.248;20.952;2023-07-28T05:02:11;5.82;;;3.83;;
17283;SDS011;8760;52.248;20.952;2023-07-28T05:04:38;6.45;;;3.72;;
17283;SDS011;8760;52.248;20.952;2023-07-28T05:07:05;4.95;;;3.65;;
17283;SDS011;8760;52.248;20.952;2023-07-28T05:09:32;7.10;;;4.43;;
17283;SDS011;8760;52.248;20.952;2023-07-28T05:12:00;4.97;;;3.58;;
17283;SDS011;8760;52.248;20.952;2023-07-28T05:14:27;5.45;;;4.10;;
17283;SDS011;8760;52.248;20.952;2023-07-28T05:16:54;6.03;;;3.78;;
17283;SDS011;8760;52.248;20.952;2023-07-28T05:19:20;6.00;;;3.97;;
17283;SDS011;8760;52.248;20.952;2023-07-28T05:21:47;4.38;;;3.88;;
17283;SDS011;8760;52.248;20.952;2023-07-28T05:24:14;7.47;;;3.90;;
17283;SDS011;8760;52.248;20.952;2023-07-28T05:26:41;4.30;;;3.90;;
17283;SDS011;8760;52.248;20.952;2023-07-28T05:29:09;8.25;;;3.90;;
17283;SDS011;8760;52.248;20.952;2023-07-28T05:31:36;7.32;;;4.10;;
17283;SDS011;8760;52.248;20.952;2023-07-28T05:34:03;4.88;;;4.07;;
17283;SDS011;8760;52.248;20.952;2023-07-28T05:36:30;5.68;;;3.65;;
17283;SDS011;8760;52.248;20.952;2023-07-28T05:38:58;4.60;;;3.63;;
17283;SDS011;8760;52.248;20.952;2023-07-28T05:41:26;5.90;;;3.20;;
17283;SDS011;8760;52.248;20.952;2023-07-28T05:43:54;5.05;;;3.90;;
17283;SDS011;8760;52.248;20.952;2023-07-28T05:46:22;6.32;;;3.72;;
17283;SDS011;8760;52.248;20.952;2023-07-28T05:48:49;6.78;;;4.15;;
17283;SDS011;8760;52.248;20.952;2023-07-28T05:51:16;5.18;;;3.80;;
17283;SDS011;8760;52.248;20.952;2023-07-28T05:53:43;10.05;;;3.80;;
17283;SDS011;8760;52.248;20.952;2023-07-28T05:56:10;5.78;;;3.92;;
17283;SDS011;8760;52.248;20.952;2023-07-28T05:58:36;4.97;;;3.70;;
17283;SDS011;8760;52.248;20.952;2023-07-28T06:01:03;7.88;;;3.75;;
17283;SDS011;8760;52.248;20.952;2023-07-28T06:03:32;7.05;;;3.80;;
17283;SDS011;8760;52.248;20.952;2023-07-28T06:05:58;6.53;;;3.70;;
17283;SDS011;8760;52.248;20.952;2023-07-28T06:08:24;5.95;;;3.47;;
17283;SDS011;8760;52.248;20.952;2023-07-28T06:10:51;7.07;;;3.80;;
17283;SDS011;8760;52.248;20.952;2023-07-28T06:13:18;5.57;;;3.80;;
17283;SDS011;8760;52.248;20.952;2023-07-28T06:15:45;7.25;;;3.28;;
17283;SDS011;8760;52.248;20.952;2023-07-28T06:18:12;7.38;;;3.53;;
17283;SDS011;8760;52.248;20.952;2023-07-28T06:20:42;5.30;;;3.53;;
17283;SDS011;8760;52.248;20.952;2023-07-28T06:23:09;7.25;;;3.53;;
17283;SDS011;8760;52.248;20.952;2023-07-28T06:25:36;7.70;;;3.70;;
17283;SDS011;8760;52.248;20.952;2023-07-28T06:28:08;10.30;;;3.80;;
17283;SDS011;8760;52.248;20.952;2023-07-28T06:30:35;7.15;;;3.60;;
17283;SDS011;8760;52.248;20.952;2023-07-28T06:33:03;4.03;;;3.42;;
17283;SDS011;8760;52.248;20.952;2023-07-28T06:35:31;6.32;;;4.10;;
17283;SDS011;8760;52.248;20.952;2023-07-28T06:38:00;8.65;;;3.83;;
17283;SDS011;8760;52.248;20.952;2023-07-28T06:40:27;8.50;;;3.65;;
17283;SDS011;8760;52.248;20.952;2023-07-28T06:42:54;6.32;;;4.65;;
17283;SDS011;8760;52.248;20.952;2023-07-28T06:45:21;5.35;;;3.58;;
17283;SDS011;8760;52.248;20.952;2023-07-28T06:47:48;5.55;;;3.45;;
17283;SDS011;8760;52.248;20.952;2023-07-28T06:50:16;5.28;;;3.60;;
17283;SDS011;8760;52.248;20.952;2023-07-28T06:52:43;8.68;;;3.97;;
17283;SDS011;8760;52.248;20.952;2023-07-28T06:55:11;4.10;;;3.58;;
17283;SDS011;8760;52.248;20.952;2023-07-28T06:57:38;7.55;;;3.97;;
17283;SDS011;8760;52.248;20.952;2023-07-28T07:00:05;6.25;;;3.60;;
17283;SDS011;8760;52.248;20.952;2023-07-28T07:02:34;5.75;;;3.92;;
17283;SDS011;8760;52.248;20.952;2023-07-28T07:05:01;7.72;;;3.88;;
17283;SDS011;8760;52.248;20.952;2023-07-28T07:07:28;4.20;;;3.30;;
17283;SDS011;8760;52.248;20.952;2023-07-28T07:09:57;6.65;;;3.38;;
17283;SDS011;8760;52.248;20.952;2023-07-28T07:12:25;5.35;;;3.53;;
17283;SDS011;8760;52.248;20.952;2023-07-28T07:14:52;4.82;;;3.80;;
17283;SDS011;8760;52.248;20.952;2023-07-28T07:17:19;6.85;;;3.67;;
17283;SDS011;8760;52.248;20.952;2023-07-28T07:19:46;6.60;;;4.22;;
17283;SDS011;8760;52.248;20.952;2023-07-28T07:22:13;5.32;;;4.30;;
17283;SDS011;8760;52.248;20.952;2023-07-28T07:24:40;6.38;;;4.07;;
17283;SDS011;8760;52.248;20.952;2023-07-28T07:27:07;6.10;;;3.92;;
17283;SDS011;8760;52.248;20.952;2023-07-28T07:29:37;5.47;;;4.15;;
17283;SDS011;8760;52.248;20.952;2023-07-28T07:32:04;6.72;;;3.50;;
17283;SDS011;8760;52.248;20.952;2023-07-28T07:34:32;5.68;;;4.65;;
17283;SDS011;8760;52.248;20.952;2023-07-28T07:37:02;5.80;;;3.90;;
17283;SDS011;8760;52.248;20.952;2023-07-28T07:39:29;6.50;;;4.43;;
17283;SDS011;8760;52.248;20.952;2023-07-28T07:41:56;6.82;;;4.43;;
17283;SDS011;8760;52.248;20.952;2023-07-28T07:44:23;5.72;;;4.57;;
17283;SDS011;8760;52.248;20.952;2023-07-28T07:46:51;7.65;;;4.88;;
17283;SDS011;8760;52.248;20.952;2023-07-28T07:49:18;8.55;;;4.53;;
17283;SDS011;8760;52.248;20.952;2023-07-28T07:51:45;6.07;;;4.80;;
17283;SDS011;8760;52.248;20.952;2023-07-28T07:54:12;6.43;;;5.18;;
17283;SDS011;8760;52.248;20.952;2023-07-28T07:56:41;5.47;;;4.75;;
17283;SDS011;8760;52.248;20.952;2023-07-28T07:59:08;7.65;;;5.20;;
17283;SDS011;8760;52.248;20.952;2023-07-28T08:01:35;6.50;;;4.80;;
17283;SDS011;8760;52.248;20.952;2023-07-28T08:04:04;7.07;;;4.85;;
17283;SDS011;8760;52.248;20.952;2023-07-28T08:06:30;5.95;;;4.97;;
17283;SDS011;8760;52.248;20.952;2023-07-28T08:08:58;5.00;;;4.50;;
17283;SDS011;8760;52.248;20.952;2023-07-28T08:11:25;9.30;;;5.05;;
17283;SDS011;8760;52.248;20.952;2023-07-28T08:13:51;5.30;;;4.80;;
17283;SDS011;8760;52.248;20.952;2023-07-28T08:16:20;5.80;;;5.18;;
17283;SDS011;8760;52.248;20.952;2023-07-28T08:18:47;12.07;;;8.23;;
17283;SDS011;8760;52.248;20.952;2023-07-28T08:21:15;8.88;;;6.32;;
17283;SDS011;8760;52.248;20.952;2023-07-28T08:23:42;11.52;;;5.97;;
17283;SDS011;8760;52.248;20.952;2023-07-28T08:26:09;7.97;;;4.93;;
17283;SDS011;8760;52.248;20.952;2023-07-28T08:28:36;10.98;;;6.50;;
17283;SDS011;8760;52.248;20.952;2023-07-28T08:31:03;9.25;;;6.00;;
17283;SDS011;8760;52.248;20.952;2023-07-28T08:33:30;9.38;;;5.25;;
17283;SDS011;8760;52.248;20.952;2023-07-28T08:35:57;8.57;;;5.45;;
17283;SDS011;8760;52.248;20.952;2023-07-28T08:38:25;5.80;;;4.63;;
17283;SDS011;8760;52.248;20.952;2023-07-28T08:40:52;9.85;;;5.50;;
17283;SDS011;8760;52.248;20.952;2023-07-28T08:43:19;6.50;;;5.00;;
17283;SDS011;8760;52.248;20.952;2023-07-28T08:45:46;7.53;;;4.80;;
17283;SDS011;8760;52.248;20.952;2023-07-28T08:48:12;5.80;;;5.05;;
17283;SDS011;8760;52.248;20.952;2023-07-28T08:50:39;6.18;;;4.80;;
17283;SDS011;8760;52.248;20.952;2023-07-28T08:53:06;5.32;;;4.82;;
17283;SDS011;8760;52.248;20.952;2023-07-28T08:55:35;6.72;;;5.47;;
17283;SDS011;8760;52.248;20.952;2023-07-28T08:58:13;7.38;;;5.05;;
17283;SDS011;8760;52.248;20.952;2023-07-28T09:00:41;7.60;;;5.63;;
17283;SDS011;8760;52.248;20.952;2023-07-28T09:03:09;5.20;;;4.70;;
17283;SDS011;8760;52.248;20.952;2023-07-28T09:05:36;6.47;;;5.88;;
17283;SDS011;8760;52.248;20.952;2023-07-28T09:08:05;8.23;;;6.20;;
17283;SDS011;8760;52.248;20.952;2023-07-28T09:10:41;7.38;;;5.63;;
17283;SDS011;8760;52.248;20.952;2023-07-28T09:13:09;7.50;;;5.43;;
17283;SDS011;8760;52.248;20.952;2023-07-28T09:15:43;5.93;;;5.32;;
17283;SDS011;8760;52.248;20.952;2023-07-28T09:18:11;9.85;;;7.35;;
17283;SDS011;8760;52.248;20.952;2023-07-28T09:20:39;8.85;;;6.93;;
17283;SDS011;8760;52.248;20.952;2023-07-28T09:23:07;8.55;;;5.97;;
17283;SDS011;8760;52.248;20.952;2023-07-28T09:25:35;6.68;;;5.68;;
17283;SDS011;8760;52.248;20.952;2023-07-28T09:28:05;8.52;;;5.65;;
17283;SDS011;8760;52.248;20.952;2023-07-28T09:30:45;6.65;;;5.70;;
17283;SDS011;8760;52.248;20.952;2023-07-28T09:33:12;6.85;;;5.90;;
17283;SDS011;8760;52.248;20.952;2023-07-28T09:35:49;7.18;;;5.72;;
17283;SDS011;8760;52.248;20.952;2023-07-28T09:38:16;7.25;;;5.60;;
17283;SDS011;8760;52.248;20.952;2023-07-28T09:40:44;8.50;;;5.97;;
17283;SDS011;8760;52.248;20.952;2023-07-28T09:43:14;7.70;;;5.82;;
17283;SDS011;8760;52.248;20.952;2023-07-28T09:45:40;7.00;;;6.18;;
17283;SDS011;8760;52.248;20.952;2023-07-28T09:48:09;7.80;;;5.82;;
17283;SDS011;8760;52.248;20.952;2023-07-28T09:50:38;7.25;;;5.35;;
17283;SDS011;8760;52.248;20.952;2023-07-28T09:53:08;9.27;;;5.00;;
17283;SDS011;8760;52.248;20.952;2023-07-28T09:55:36;7.18;;;5.25;;
17283;SDS011;8760;52.248;20.952;2023-07-28T09:58:05;6.15;;;5.45;;
17283;SDS011;8760;52.248;20.952;2023-07-28T10:00:38;5.55;;;5.05;;
17283;SDS011;8760;52.248;20.952;2023-07-28T10:03:06;7.10;;;4.80;;
17283;SDS011;8760;52.248;20.952;2023-07-28T10:05:34;7.93;;;5.00;;
17283;SDS011;8760;52.248;20.952;2023-07-28T10:08:02;8.30;;;5.90;;
17283;SDS011;8760;52.248;20.952;2023-07-28T10:10:30;8.32;;;6.32;;
17283;SDS011;8760;52.248;20.952;2023-07-28T10:12:58;5.93;;;5.35;;
17283;SDS011;8760;52.248;20.952;2023-07-28T10:15:29;7.50;;;6.45;;
17283;SDS011;8760;52.248;20.952;2023-07-28T10:17:58;5.10;;;4.60;;
17283;SDS011;8760;52.248;20.952;2023-07-28T10:20:33;7.53;;;5.80;;
17283;SDS011;8760;52.248;20.952;2023-07-28T10:23:07;5.15;;;4.65;;
17283;SDS011;8760;52.248;20.952;2023-07-28T10:25:39;8.43;;;4.80;;
17283;SDS011;8760;52.248;20.952;2023-07-28T10:28:07;6.18;;;4.45;;
17283;SDS011;8760;52.248;20.952;2023-07-28T10:30:51;5.25;;;4.53;;
17283;SDS011;8760;52.248;20.952;2023-07-28T10:33:28;5.28;;;4.53;;
17283;SDS011;8760;52.248;20.952;2023-07-28T10:35:56;5.95;;;5.00;;
17283;SDS011;8760;52.248;20.952;2023-07-28T10:38:27;5.80;;;5.00;;
17283;SDS011;8760;52.248;20.952;2023-07-28T10:41:04;7.55;;;4.60;;
17283;SDS011;8760;52.248;20.952;2023-07-28T10:43:39;6.35;;;5.20;;
17283;SDS011;8760;52.248;20.952;2023-07-28T10:46:07;8.98;;;5.40;;
17283;SDS011;8760;52.248;20.952;2023-07-28T10:48:37;5.35;;;4.85;;
17283;SDS011;8760;52.248;20.952;2023-07-28T10:51:08;6.25;;;4.53;;
17283;SDS011;8760;52.248;20.952;2023-07-28T10:53:35;5.40;;;4.82;;
17283;SDS011;8760;52.248;20.952;2023-07-28T10:56:02;7.97;;;4.78;;
17283;SDS011;8760;52.248;20.952;2023-07-28T10:58:30;8.57;;;4.90;;
17283;SDS011;8760;52.248;20.952;2023-07-28T11:00:59;7.82;;;5.05;;
17283;SDS011;8760;52.248;20.952;2023-07-28T11:03:27;7.72;;;4.80;;
17283;SDS011;8760;52.248;20.952;2023-07-28T11:05:56;6.53;;;4.30;;
17283;SDS011;8760;52.248;20.952;2023-07-28T11:08:23;7.35;;;4.68;;
17283;SDS011;8760;52.248;20.952;2023-07-28T11:10:50;5.30;;;4.15;;
17283;SDS011;8760;52.248;20.952;2023-07-28T11:13:17;5.18;;;4.68;;
17283;SDS011;8760;52.248;20.952;2023-07-28T11:15:44;7.88;;;4.65;;
17283;SDS011;8760;52.248;20.952;2023-07-28T11:18:11;5.53;;;4.13;;
17283;SDS011;8760;52.248;20.952;2023-07-28T11:20:42;4.55;;;4.15;;
17283;SDS011;8760;52.248;20.952;2023-07-28T11:23:13;6.30;;;4.53;;
17283;SDS011;8760;52.248;20.952;2023-07-28T11:25:42;5.13;;;4.63;;
17283;SDS011;8760;52.248;20.952;2023-07-28T11:28:10;4.97;;;4.47;;
17283;SDS011;8760;52.248;20.952;2023-07-28T11:30:37;6.05;;;5.00;;
17283;SDS011;8760;52.248;20.952;2023-07-28T11:33:04;7.13;;;4.20;;
17283;SDS011;8760;52.248;20.952;2023-07-28T11:35:36;5.43;;;4.03;;
17283;SDS011;8760;52.248;20.952;2023-07-28T11:38:03;5.45;;;3.80;;
17283;SDS011;8760;52.248;20.952;2023-07-28T11:40:32;7.90;;;3.50;;
17283;SDS011;8760;52.248;20.952;2023-07-28T11:42:59;3.42;;;2.80;;
17283;SDS011;8760;52.248;20.952;2023-07-28T11:45:28;9.98;;;2.83;;
17283;SDS011;8760;52.248;20.952;2023-07-28T11:47:56;4.68;;;2.38;;
17283;SDS011;8760;52.248;20.952;2023-07-28T11:50:24;5.55;;;2.88;;
17283;SDS011;8760;52.248;20.952;2023-07-28T11:52:52;2.42;;;2.20;;
17283;SDS011;8760;52.248;20.952;2023-07-28T11:55:20;2.20;;;2.00;;
17283;SDS011;8760;52.248;20.952;2023-07-28T11:57:48;2.10;;;1.83;;
17283;SDS011;8760;52.248;20.952;2023-07-28T12:00:16;1.75;;;1.63;;
17283;SDS011;8760;52.248;20.952;2023-07-28T12:02:43;2.75;;;1.30;;
17283;SDS011;8760;52.248;20.952;2023-07-28T12:05:12;1.63;;;1.50;;
17283;SDS011;8760;52.248;20.952;2023-07-28T12:07:39;1.90;;;1.38;;
17283;SDS011;8760;52.248;20.952;2023-07-28T12:10:07;2.40;;;2.20;;
17283;SDS011;8760;52.248;20.952;2023-07-28T12:12:44;1.55;;;1.42;;
17283;SDS011;8760;52.248;20.952;2023-07-28T12:15:20;2.05;;;1.55;;
17283;SDS011;8760;52.248;20.952;2023-07-28T12:18:01;6.53;;;1.70;;
17283;SDS011;8760;52.248;20.952;2023-07-28T12:20:36;2.85;;;1.33;;
17283;SDS011;8760;52.248;20.952;2023-07-28T12:23:04;1.95;;;1.20;;
17283;SDS011;8760;52.248;20.952;2023-07-28T12:25:32;1.40;;;1.30;;
17283;SDS011;8760;52.248;20.952;2023-07-28T12:28:00;2.38;;;1.50;;
17283;SDS011;8760;52.248;20.952;2023-07-28T12:30:28;3.50;;;1.80;;
17283;SDS011;8760;52.248;20.952;2023-07-28T12:32:55;1.35;;;1.20;;
17283;SDS011;8760;52.248;20.952;2023-07-28T12:35:23;2.15;;;1.45;;
17283;SDS011;8760;52.248;20.952;2023-07-28T12:37:55;1.90;;;1.30;;
17283;SDS011;8760;52.248;20.952;2023-07-28T12:40:25;1.77;;;1.38;;
17283;SDS011;8760;52.248;20.952;2023-07-28T12:42:52;1.88;;;1.40;;
17283;SDS011;8760;52.248;20.952;2023-07-28T12:45:19;1.45;;;1.35;;
17283;SDS011;8760;52.248;20.952;2023-07-28T12:47:48;2.75;;;1.48;;
17283;SDS011;8760;52.248;20.952;2023-07-28T12:50:15;1.60;;;1.50;;
17283;SDS011;8760;52.248;20.952;2023-07-28T12:52:42;1.48;;;1.35;;
17283;SDS011;8760;52.248;20.952;2023-07-28T12:55:09;1.58;;;1.30;;
17283;SDS011;8760;52.248;20.952;2023-07-28T12:57:36;2.33;;;1.40;;
17283;SDS011;8760;52.248;20.952;2023-07-28T13:00:04;2.05;;;1.40;;
17283;SDS011;8760;52.248;20.952;2023-07-28T13:02:37;2.03;;;1.50;;
17283;SDS011;8760;52.248;20.952;2023-07-28T13:05:06;1.75;;;1.50;;
17283;SDS011;8760;52.248;20.952;2023-07-28T13:07:35;1.92;;;1.50;;
17283;SDS011;8760;52.248;20.952;2023-07-28T13:10:02;2.05;;;1.38;;
17283;SDS011;8760;52.248;20.952;2023-07-28T13:12:30;3.75;;;1.40;;
17283;SDS011;8760;52.248;20.952;2023-07-28T13:14:57;2.40;;;1.67;;
17283;SDS011;8760;52.248;20.952;2023-07-28T13:17:24;1.50;;;1.30;;
17283;SDS011;8760;52.248;20.952;2023-07-28T13:19:51;3.42;;;1.33;;
17283;SDS011;8760;52.248;20.952;2023-07-28T13:22:19;3.50;;;1.50;;
17283;SDS011;8760;52.248;20.952;2023-07-28T13:24:46;1.45;;;1.30;;
17283;SDS011;8760;52.248;20.952;2023-07-28T13:27:13;2.60;;;1.10;;
17283;SDS011;8760;52.248;20.952;2023-07-28T13:29:40;2.10;;;1.27;;
17283;SDS011;8760;52.248;20.952;2023-07-28T13:32:14;3.10;;;1.90;;
17283;SDS011;8760;52.248;20.952;2023-07-28T13:34:42;1.63;;;1.35;;
17283;SDS011;8760;52.248;20.952;2023-07-28T13:37:10;2.15;;;1.50;;
17283;SDS011;8760;52.248;20.952;2023-07-28T13:39:38;1.60;;;1.40;;
17283;SDS011;8760;52.248;20.952;2023-07-28T13:42:05;1.95;;;1.40;;
17283;SDS011;8760;52.248;20.952;2023-07-28T13:44:32;1.92;;;1.48;;
17283;SDS011;8760;52.248;20.952;2023-07-28T13:46:58;1.30;;;1.20;;
17283;SDS011;8760;52.248;20.952;2023-07-28T13:49:26;1.83;;;1.48;;
17283;SDS011;8760;52.248;20.952;2023-07-28T13:51:53;2.13;;;1.70;;
17283;SDS011;8760;52.248;20.952;2023-07-28T13:54:20;2.55;;;1.50;;
17283;SDS011;8760;52.248;20.952;2023-07-28T13:56:48;1.40;;;1.30;;
17283;SDS011;8760;52.248;20.952;2023-07-28T13:59:15;1.35;;;1.25;;
17283;SDS011;8760;52.248;20.952;2023-07-28T14:01:42;1.85;;;1.50;;
17283;SDS011;8760;52.248;20.952;2023-07-28T14:04:08;1.90;;;1.40;;
17283;SDS011;8760;52.248;20.952;2023-07-28T14:06:35;1.83;;;1.65;;
17283;SDS011;8760;52.248;20.952;2023-07-28T14:09:02;3.80;;;1.55;;
17283;SDS011;8760;52.248;20.952;2023-07-28T14:11:29;5.13;;;1.70;;
17283;SDS011;8760;52.248;20.952;2023-07-28T14:13:57;1.80;;;1.50;;
17283;SDS011;8760;52.248;20.952;2023-07-28T14:16:24;2.95;;;1.80;;
17283;SDS011;8760;52.248;20.952;2023-07-28T14:18:51;2.80;;;2.00;;
17283;SDS011;8760;52.248;20.952;2023-07-28T14:21:18;1.70;;;1.60;;
17283;SDS011;8760;52.248;20.952;2023-07-28T14:23:45;2.05;;;1.60;;
17283;SDS011;8760;52.248;20.952;2023-07-28T14:26:12;1.88;;;1.67;;
17283;SDS011;8760;52.248;20.952;2023-07-28T14:28:39;1.88;;;1.77;;
17283;SDS011;8760;52.248;20.952;2023-07-28T14:31:08;2.42;;;1.67;;
17283;SDS011;8760;52.248;20.952;2023-07-28T14:33:37;3.70;;;1.50;;
17283;SDS011;8760;52.248;20.952;2023-07-28T14:36:04;1.70;;;1.60;;
17283;SDS011;8760;52.248;20.952;2023-07-28T14:38:31;1.98;;;1.65;;
17283;SDS011;8760;52.248;20.952;2023-07-28T14:40:58;2.47;;;1.90;;
17283;SDS011;8760;52.248;20.952;2023-07-28T14:43:25;3.28;;;1.40;;
17283;SDS011;8760;52.248;20.952;2023-07-28T14:45:52;3.60;;;1.73;;
17283;SDS011;8760;52.248;20.952;2023-07-28T14:48:21;1.90;;;1.52;;
17283;SDS011;8760;52.248;20.952;2023-07-28T14:50:48;1.63;;;1.52;;
17283;SDS011;8760;52.248;20.952;2023-07-28T14:53:27;1.70;;;1.60;;